Time;durP1;ratioP1;P1;durP2;ratioP2;P2;SDS_P1;SDS_P2;PMS_P1;PMS_P2;Temp;Humidity;BMP_temperature;BMP_pressure;BME280_temperature;BME280_humidity;BME280_pressure;Samples;Min_cycle;Max_cycle;Signal;HPM_P1;HPM_P2
2021/07/04 00:05:59;;;;;;;33.30;19.35;;;;;;;20.06;100.00;100062.07;714665;1202;114907;-81
2021/07/04 00:21:07;;;;;;;32.00;19.53;;;;;;;20.20;100.00;100070.06;714774;1174;115878;-81
2021/07/04 00:36:09;;;;;;;33.63;20.03;;;;;;;20.21;100.00;100071.71;714606;1199;115058;-82
2021/07/04 00:51:11;;;;;;;29.38;19.03;;;;;;;20.33;100.00;100063.93;714594;1199;116347;-82
2021/07/04 01:06:14;;;;;;;24.38;15.08;;;;;;;20.17;100.00;100059.83;714220;1176;114316;-82
2021/07/04 01:21:18;;;;;;;19.03;13.73;;;;;;;19.91;100.00;100045.45;714175;1202;115269;-83
2021/07/04 01:36:21;;;;;;;25.65;13.95;;;;;;;19.89;100.00;100050.98;714492;1200;115429;-82
2021/07/04 01:51:23;;;;;;;22.05;13.70;;;;;;;19.95;100.00;100044.02;714693;1199;114821;-82
2021/07/04 02:06:25;;;;;;;32.78;18.20;;;;;;;19.95;100.00;100046.69;714722;1199;114304;-82
2021/07/04 02:21:28;;;;;;;28.93;17.40;;;;;;;19.89;100.00;100058.16;714424;1200;115018;-83
2021/07/04 02:36:30;;;;;;;29.38;16.13;;;;;;;19.85;100.00;100056.90;716095;1199;114802;-82
2021/07/04 02:51:32;;;;;;;34.53;16.58;;;;;;;19.73;100.00;100052.16;714600;1198;113920;-82
2021/07/04 03:06:34;;;;;;;31.80;17.85;;;;;;;19.78;100.00;100063.02;714307;1199;115380;-82
2021/07/04 03:21:37;;;;;;;29.77;16.70;;;;;;;19.92;100.00;100068.39;715107;1178;114330;-82
2021/07/04 03:36:39;;;;;;;35.67;19.57;;;;;;;20.00;100.00;100081.50;727262;1189;114368;-83
2021/07/04 03:51:41;;;;;;;30.48;17.18;;;;;;;20.26;100.00;100087.91;714981;1174;114299;-81
2021/07/04 04:06:43;;;;;;;30.33;18.60;;;;;;;20.56;100.00;100087.48;714504;1199;114754;-83
2021/07/04 04:21:46;;;;;;;30.90;16.38;;;;;;;20.84;100.00;100092.63;714825;1200;114711;-81
2021/07/04 04:36:48;;;;;;;32.40;17.30;;;;;;;21.06;100.00;100093.20;715065;1185;114554;-82
2021/07/04 04:51:50;;;;;;;25.55;15.65;;;;;;;21.36;100.00;100095.34;714260;1199;113835;-83
2021/07/04 05:06:52;;;;;;;26.58;15.18;;;;;;;21.69;100.00;100086.40;715658;1199;115278;-82
2021/07/04 05:21:54;;;;;;;22.08;13.78;;;;;;;21.80;100.00;100100.92;714911;1199;114353;-81
2021/07/04 05:36:57;;;;;;;27.03;15.23;;;;;;;22.02;100.00;100097.94;714859;1199;115435;-81
2021/07/04 05:51:59;;;;;;;21.40;13.73;;;;;;;22.68;100.00;100099.29;714365;1203;115662;-81
2021/07/04 06:07:01;;;;;;;18.60;12.93;;;;;;;22.72;100.00;100103.16;714290;1199;114349;-80
2021/07/04 06:22:04;;;;;;;15.28;12.35;;;;;;;22.95;100.00;100112.42;714167;1175;116015;-78
2021/07/04 06:37:06;;;;;;;16.55;11.43;;;;;;;22.68;100.00;100117.20;714861;1177;114720;-80
2021/07/04 06:52:08;;;;;;;14.28;9.88;;;;;;;22.85;100.00;100112.91;714630;1199;114331;-80
2021/07/04 07:07:11;;;;;;;14.50;9.43;;;;;;;23.29;100.00;100118.25;715047;1200;114967;-82
2021/07/04 07:22:13;;;;;;;13.53;10.20;;;;;;;23.79;100.00;100105.70;715900;1200;114429;-82
2021/07/04 07:37:15;;;;;;;11.83;8.83;;;;;;;24.77;100.00;100116.20;715423;1199;115134;-81
2021/07/04 07:52:17;;;;;;;13.00;9.53;;;;;;;24.56;100.00;100102.27;715824;1174;114297;-77
2021/07/04 08:07:19;;;;;;;14.20;8.78;;;;;;;25.10;100.00;100112.89;715077;1177;114097;-75
2021/07/04 08:22:21;;;;;;;17.10;11.00;;;;;;;24.99;100.00;100103.81;715698;1199;115757;-78
2021/07/04 08:37:24;;;;;;;12.10;9.33;;;;;;;26.81;100.00;100090.72;716725;1177;114386;-78
2021/07/04 08:52:27;;;;;;;10.35;8.60;;;;;;;27.69;100.00;100095.31;715152;1183;114535;-79
2021/07/04 09:07:31;;;;;;;13.68;8.90;;;;;;;28.20;100.00;100091.48;716021;1200;114274;-77
2021/07/04 09:22:38;;;;;;;9.35;7.63;;;;;;;26.25;100.00;100071.86;717203;1199;115608;-79
2021/07/04 09:37:46;;;;;;;9.88;6.73;;;;;;;26.68;100.00;100062.26;717165;1200;113877;-75
2021/07/04 09:53:02;;;;;;;7.20;6.43;;;;;;;27.15;100.00;100052.14;715193;1199;113843;-76
2021/07/04 10:08:38;;;;;;;9.58;7.05;;;;;;;28.30;100.00;100045.72;715511;1200;114505;-81
2021/07/04 10:23:47;;;;;;;7.38;6.33;;;;;;;28.74;98.11;100023.06;715369;1199;115696;-72
2021/07/04 10:38:57;;;;;;;7.00;5.95;;;;;;;30.78;92.33;99997.55;716413;1199;114709;-87
2021/07/04 10:53:59;;;;;;;7.73;6.20;;;;;;;30.40;88.65;99981.68;718272;1202;114058;-88
2021/07/04 11:09:02;;;;;;;10.05;5.95;;;;;;;28.25;87.72;99972.88;717364;1202;113493;-86
2021/07/04 11:24:29;;;;;;;7.05;6.15;;;;;;;28.76;88.13;99963.44;717979;1179;112864;-85
2021/07/04 11:39:31;;;;;;;7.68;5.80;;;;;;;30.55;85.81;99942.95;717465;1180;115038;-85
2021/07/04 11:54:35;;;;;;;8.13;5.35;;;;;;;29.69;83.54;99930.15;717024;1174;113632;-88
2021/07/04 12:09:39;;;;;;;10.10;5.80;;;;;;;31.05;81.21;99921.34;716225;1178;113634;-77
2021/07/04 12:24:44;;;;;;;5.98;5.00;;;;;;;31.42;77.51;99908.34;715424;1199;115075;-77
2021/07/04 12:39:46;;;;;;;5.60;4.43;;;;;;;31.82;76.24;99882.80;714974;1176;114052;-77
2021/07/04 12:54:49;;;;;;;8.65;4.70;;;;;;;31.61;75.10;99876.77;716529;1199;113882;-76
2021/07/04 13:09:52;;;;;;;7.48;4.68;;;;;;;29.42;75.33;99913.38;714763;1199;115049;-76
2021/07/04 13:25:03;;;;;;;11.75;4.88;;;;;;;26.52;83.47;99905.25;715219;1199;114200;-76
2021/07/04 13:40:12;;;;;;;7.60;5.95;;;;;;;24.35;100.00;99908.83;714864;1177;113966;-78
2021/07/04 13:55:14;;;;;;;10.23;6.60;;;;;;;24.66;100.00;99869.27;723110;1199;113909;-81
2021/07/04 14:10:17;;;;;;;11.00;6.85;;;;;;;24.42;100.00;99904.14;721203;1200;114640;-82
2021/07/04 14:25:23;;;;;;;8.90;7.20;;;;;;;24.22;100.00;99922.48;716532;1202;113956;-81
2021/07/04 14:40:26;;;;;;;8.53;6.60;;;;;;;23.87;100.00;99933.97;716641;1200;114391;-81
2021/07/04 14:55:37;;;;;;;8.10;6.00;;;;;;;23.18;100.00;99913.81;716618;1200;114429;-81
2021/07/04 15:10:40;;;;;;;9.38;6.93;;;;;;;22.53;100.00;99896.52;717160;1199;114680;-82
2021/07/04 15:25:43;;;;;;;11.28;9.28;;;;;;;23.16;100.00;99883.81;716746;1200;117302;-83
2021/07/04 15:40:46;;;;;;;12.45;8.40;;;;;;;23.20;100.00;99906.39;716659;1176;114836;-82
2021/07/04 15:55:48;;;;;;;24.05;15.25;;;;;;;22.84;100.00;99913.41;716767;1202;114022;-82
2021/07/04 16:10:50;;;;;;;12.27;7.40;;;;;;;22.82;100.00;99894.11;716949;1200;114290;-82
2021/07/04 16:25:53;;;;;;;13.73;8.98;;;;;;;22.65;100.00;99879.74;716999;1199;113876;-81
2021/07/04 16:40:55;;;;;;;10.03;7.23;;;;;;;22.75;100.00;99847.92;717269;1178;114823;-83
2021/07/04 16:55:57;;;;;;;15.53;10.70;;;;;;;22.97;100.00;99860.80;716660;1175;114557;-81
2021/07/04 17:10:59;;;;;;;15.70;10.83;;;;;;;22.83;100.00;99868.18;716471;1200;114837;-76
2021/07/04 17:26:02;;;;;;;14.00;9.38;;;;;;;22.74;100.00;99881.06;716404;1201;113704;-79
2021/07/04 17:41:04;;;;;;;13.63;10.20;;;;;;;22.73;100.00;99898.95;716883;1189;114004;-80
2021/07/04 17:56:11;;;;;;;28.47;12.67;;;;;;;22.70;100.00;99911.94;717280;1199;115712;-81
2021/07/04 18:11:13;;;;;;;17.67;11.13;;;;;;;22.58;100.00;99906.52;716993;1199;114874;-80
2021/07/04 18:26:16;;;;;;;16.63;10.55;;;;;;;22.31;100.00;99917.48;715800;1176;114054;-77
2021/07/04 18:41:18;;;;;;;17.28;10.80;;;;;;;22.24;100.00;99908.73;714639;1173;114149;-77
2021/07/04 18:56:20;;;;;;;130.27;47.27;;;;;;;22.22;100.00;99916.95;717402;1199;114183;-80
2021/07/04 19:11:30;;;;;;;51.33;24.40;;;;;;;21.75;100.00;99904.04;718372;1175;114208;-79
2021/07/04 19:26:32;;;;;;;12.40;7.90;;;;;;;21.42;100.00;99918.42;718672;1200;115789;-79
2021/07/04 19:41:35;;;;;;;8.23;5.58;;;;;;;20.94;100.00;99908.23;718165;1198;113962;-79
2021/07/04 19:56:37;;;;;;;10.73;6.90;;;;;;;21.21;100.00;99905.44;717805;1200;114408;-79
2021/07/04 20:11:41;;;;;;;26.88;12.80;;;;;;;21.21;100.00;99908.11;718017;1178;113861;-79
2021/07/04 20:26:44;;;;;;;16.10;9.68;;;;;;;21.08;100.00;99890.33;718227;1184;114885;-79
2021/07/04 20:41:46;;;;;;;15.43;8.50;;;;;;;21.05;100.00;99888.06;717982;1176;114509;-79
2021/07/04 20:56:49;;;;;;;14.40;8.77;;;;;;;20.95;100.00;99885.88;717941;1199;114884;-79
2021/07/04 21:11:53;;;;;;;13.38;7.75;;;;;;;20.97;100.00;99869.66;718088;1174;115513;-80
2021/07/04 21:26:55;;;;;;;20.15;11.60;;;;;;;20.84;100.00;99870.55;717653;1176;114367;-79
2021/07/04 21:41:57;;;;;;;16.28;11.03;;;;;;;20.59;100.00;99868.59;718035;1174;114039;-80
2021/07/04 21:57:24;;;;;;;24.20;11.13;;;;;;;20.52;100.00;99873.95;717188;1199;114174;-80
2021/07/04 22:12:59;;;;;;;26.58;15.15;;;;;;;20.50;100.00;99872.53;716938;1200;115622;-81
2021/07/04 22:28:06;;;;;;;25.78;14.38;;;;;;;20.44;100.00;99856.36;716652;1200;114409;-80
2021/07/04 22:43:09;;;;;;;24.85;14.75;;;;;;;20.29;100.00;99851.27;715636;1199;115244;-81
2021/07/04 22:58:12;;;;;;;22.58;12.80;;;;;;;20.16;100.00;99855.83;715733;1178;114211;-80
2021/07/04 23:13:14;;;;;;;16.43;10.10;;;;;;;19.82;100.00;99860.38;715440;1177;113662;-80
2021/07/04 23:28:17;;;;;;;21.33;12.60;;;;;;;19.78;100.00;99852.78;715564;1177;114884;-80
2021/07/04 23:43:19;;;;;;;16.58;10.95;;;;;;;19.79;100.00;99853.59;716088;1199;114594;-81
2021/07/04 23:58:22;;;;;;;13.55;7.68;;;;;;;19.54;100.00;99856.06;716196;1199;113953;-81
